createdAt,value
2024-04-11T00:00:02.472Z,1977.00
2024-04-11T00:01:02.453Z,1977.00
2024-04-11T00:02:02.399Z,1978.00
2024-04-11T00:03:02.440Z,1977.00
2024-04-11T00:04:02.658Z,1977.00
2024-04-11T00:05:02.449Z,1977.00
2024-04-11T00:06:02.406Z,1983.00
2024-04-11T00:07:02.214Z,1976.00
2024-04-11T00:08:02.181Z,1972.00
2024-04-11T00:09:02.289Z,1975.00
2024-04-11T00:10:02.207Z,1976.00
2024-04-11T00:11:02.085Z,1971.00
2024-04-11T00:12:02.164Z,1972.00
2024-04-11T00:13:02.047Z,1975.00
2024-04-11T00:14:02.015Z,1973.00
2024-04-11T00:15:02.169Z,1964.00
2024-04-11T00:16:01.985Z,1976.00
2024-04-11T00:17:01.898Z,1965.00
2024-04-11T00:18:01.993Z,1967.00
2024-04-11T00:19:01.825Z,1968.00
2024-04-11T00:20:01.811Z,1965.00
2024-04-11T00:21:01.807Z,1960.00
2024-04-11T00:22:01.695Z,1971.00
2024-04-11T00:23:01.775Z,1955.00
2024-04-11T00:24:01.735Z,1959.00
2024-04-11T00:25:01.594Z,1960.00
2024-04-11T00:26:01.571Z,1959.00
2024-04-11T00:27:01.662Z,1952.00
2024-04-11T00:28:01.736Z,1950.00
2024-04-11T00:29:01.443Z,1958.00
2024-04-11T00:30:01.611Z,1952.00
2024-04-11T00:31:01.369Z,1948.00
2024-04-11T00:32:01.336Z,1956.00
2024-04-11T00:33:01.542Z,1953.00
2024-04-11T00:34:01.429Z,1954.00
2024-04-11T00:35:01.285Z,1950.00
2024-04-11T00:36:01.585Z,1959.00
2024-04-11T00:37:01.248Z,1951.00
2024-04-11T00:38:01.210Z,1942.00
2024-04-11T00:39:01.357Z,1953.00
2024-04-11T00:40:01.131Z,1947.00
2024-04-11T00:41:01.113Z,1950.00
2024-04-11T00:42:01.126Z,1946.00
2024-04-11T00:43:01.094Z,1946.00
2024-04-11T00:44:01.062Z,1942.00
2024-04-11T00:45:01.232Z,1940.00
2024-04-11T00:46:00.988Z,1941.00
2024-04-11T00:47:00.977Z,1939.00
2024-04-11T00:48:01.159Z,1942.00
2024-04-11T00:49:01.130Z,1938.00
2024-04-11T00:50:01.735Z,1936.00
2024-04-11T00:51:01.087Z,1932.00
2024-04-11T00:52:00.848Z,1933.00
2024-04-11T00:53:00.833Z,1929.00
2024-04-11T00:54:00.961Z,1929.00
2024-04-11T00:55:00.785Z,1926.00
2024-04-11T00:56:00.792Z,1930.00
2024-04-11T00:57:00.927Z,1925.00
2024-04-11T00:58:00.692Z,1924.00
2024-04-11T00:59:00.677Z,1924.00
2024-04-11T01:00:00.778Z,1923.00
2024-04-11T01:01:00.661Z,1928.00
2024-04-11T01:02:00.545Z,1927.00
2024-04-11T01:03:00.660Z,1924.00
2024-04-11T01:04:00.871Z,1913.00
2024-04-11T01:05:00.533Z,1921.00
2024-04-11T01:06:00.541Z,1921.00
2024-04-11T01:07:00.409Z,1910.00
2024-04-11T01:08:00.384Z,1913.00
2024-04-11T01:09:00.524Z,1904.00
2024-04-11T01:10:00.371Z,1904.00
2024-04-11T01:11:00.372Z,1907.00
2024-04-11T01:12:00.312Z,1909.00
2024-04-11T01:13:00.223Z,1917.00
2024-04-11T01:14:00.204Z,1919.00
2024-04-11T01:15:00.306Z,1918.00
2024-04-11T01:16:00.147Z,1915.00
2024-04-11T01:17:00.175Z,1912.00
2024-04-11T01:18:00.183Z,1914.00
2024-04-11T01:19:00.169Z,1924.00
2024-04-11T01:20:00.002Z,1912.00
2024-04-11T01:21:00.212Z,1913.00
2024-04-11T01:21:59.920Z,1907.00
2024-04-11T01:22:59.893Z,1909.00
2024-04-11T01:24:00.062Z,1906.00
2024-04-11T01:24:59.855Z,1902.00
2024-04-11T01:25:59.803Z,1913.00
2024-04-11T01:26:59.837Z,1907.00
2024-04-11T01:27:59.764Z,1905.00
2024-04-11T01:28:59.715Z,1910.00
2024-04-11T01:29:59.790Z,1898.00
2024-04-11T01:30:59.668Z,1906.00
2024-04-11T01:31:59.672Z,1896.00
2024-04-11T01:32:59.792Z,1899.00
2024-04-11T01:33:59.858Z,1899.00
2024-04-11T01:34:59.648Z,1905.00
2024-04-11T01:35:59.623Z,1897.00
2024-04-11T01:36:59.575Z,1897.00
2024-04-11T01:37:59.602Z,1899.00
2024-04-11T01:38:59.628Z,1906.00
2024-04-11T01:39:59.542Z,1887.00
2024-04-11T01:40:59.545Z,1894.00
2024-04-11T01:41:59.625Z,1894.00
2024-04-11T01:42:59.458Z,1890.00
2024-04-11T01:43:59.427Z,1893.00
2024-04-11T01:44:59.483Z,1884.00
2024-04-11T01:45:59.403Z,1883.00
2024-04-11T01:46:59.370Z,1883.00
2024-04-11T01:47:59.460Z,1896.00
2024-04-11T01:48:59.383Z,1891.00
2024-04-11T01:49:59.320Z,1880.00
2024-04-11T01:50:59.428Z,1893.00
2024-04-11T01:51:59.321Z,1888.00
2024-04-11T01:52:59.333Z,1882.00
2024-04-11T01:53:59.366Z,1871.00
2024-04-11T01:54:59.308Z,1883.00
2024-04-11T01:55:59.306Z,1882.00
2024-04-11T01:56:59.344Z,1879.00
2024-04-11T01:57:59.283Z,1878.00
2024-04-11T01:58:59.268Z,1879.00
2024-04-11T01:59:59.312Z,1880.00
2024-04-11T02:00:59.233Z,1879.00
2024-04-11T02:01:59.188Z,1879.00
2024-04-11T02:02:59.188Z,1876.00
2024-04-11T02:03:59.297Z,1875.00
2024-04-11T02:04:59.069Z,1877.00
2024-04-11T02:05:59.100Z,1871.00
2024-04-11T02:06:59.001Z,1874.00
2024-04-11T02:07:58.960Z,1866.00
2024-04-11T02:08:59.041Z,1875.00
2024-04-11T02:09:58.888Z,1869.00
2024-04-11T02:10:58.935Z,1873.00
2024-04-11T02:11:58.917Z,1872.00
2024-04-11T02:13:01.760Z,1872.00
2024-04-11T02:13:58.768Z,1873.00
2024-04-11T02:14:58.802Z,1874.00
2024-04-11T02:15:58.681Z,1873.00
2024-04-11T02:16:58.826Z,1873.00
2024-04-11T02:17:59.192Z,1872.00
2024-04-11T02:18:58.603Z,1873.00
2024-04-11T02:19:58.551Z,1870.00
2024-04-11T02:20:58.623Z,1863.00
2024-04-11T02:21:58.491Z,1861.00
2024-04-11T02:22:58.468Z,1867.00
2024-04-11T02:23:58.520Z,1872.00
2024-04-11T02:24:58.391Z,1867.00
2024-04-11T02:25:58.441Z,1866.00
2024-04-11T02:26:58.395Z,1856.00
2024-04-11T02:27:58.298Z,1855.00
2024-04-11T02:28:58.293Z,1864.00
2024-04-11T02:29:58.367Z,1854.00
2024-04-11T02:30:58.202Z,1855.00
2024-04-11T02:31:58.143Z,1848.00
2024-04-11T02:32:58.242Z,1854.00
2024-04-11T02:33:58.202Z,1851.00
2024-04-11T02:34:58.045Z,1855.00
2024-04-11T02:35:58.127Z,1848.00
2024-04-11T02:36:57.990Z,1844.00
2024-04-11T02:37:57.943Z,1854.00
2024-04-11T02:38:58.436Z,1846.00
2024-04-11T02:39:57.915Z,1849.00
2024-04-11T02:40:57.826Z,1841.00
2024-04-11T02:41:57.812Z,1841.00
2024-04-11T02:42:57.761Z,1844.00
2024-04-11T02:43:57.728Z,1847.00
2024-04-11T02:44:57.761Z,1846.00
2024-04-11T02:45:57.651Z,1845.00
2024-04-11T02:46:57.652Z,1844.00
2024-04-11T02:47:57.678Z,1835.00
2024-04-11T02:48:57.916Z,1839.00
2024-04-11T02:49:57.505Z,1839.00
2024-04-11T02:50:57.501Z,1839.00
2024-04-11T02:51:57.442Z,1840.00
2024-04-11T02:52:57.407Z,1848.00
2024-04-11T02:53:57.362Z,1842.00
2024-04-11T02:54:57.320Z,1838.00
2024-04-11T02:55:57.305Z,1840.00
2024-04-11T02:56:57.430Z,1833.00
2024-04-11T02:57:57.236Z,1838.00
2024-04-11T02:58:57.197Z,1834.00
2024-04-11T02:59:57.309Z,1834.00
2024-04-11T03:00:57.166Z,1837.00
2024-04-11T03:01:57.092Z,1839.00
2024-04-11T03:02:57.209Z,1831.00
2024-04-11T03:03:57.137Z,1831.00
2024-04-11T03:04:57.063Z,1830.00
2024-04-11T03:05:57.032Z,1834.00
2024-04-11T03:06:56.970Z,1830.00
2024-04-11T03:07:56.919Z,1828.00
2024-04-11T03:08:56.966Z,1819.00
2024-04-11T03:09:56.861Z,1820.00
2024-04-11T03:10:56.907Z,1821.00
2024-04-11T03:11:56.827Z,1824.00
2024-04-11T03:12:56.745Z,1826.00
2024-04-11T03:13:56.721Z,1830.00
2024-04-11T03:14:56.683Z,1831.00
2024-04-11T03:15:56.811Z,1822.00
2024-04-11T03:16:56.661Z,1826.00
2024-04-11T03:17:56.717Z,1818.00
2024-04-11T03:18:56.724Z,1814.00
2024-04-11T03:19:56.502Z,1802.00
2024-04-11T03:20:56.517Z,1795.00
2024-04-11T03:21:56.433Z,1761.00
2024-04-11T03:22:56.380Z,1737.00
2024-04-11T03:23:56.460Z,1694.00
2024-04-11T03:24:56.333Z,1656.00
2024-04-11T03:25:56.382Z,1621.00
2024-04-11T03:26:56.288Z,1582.00
2024-04-11T03:27:56.239Z,1543.00
2024-04-11T03:28:56.198Z,1525.00
2024-04-11T03:29:56.249Z,1485.00
2024-04-11T03:30:56.138Z,1436.00
2024-04-11T03:31:56.109Z,1421.00
2024-04-11T03:32:56.193Z,1395.00
2024-04-11T03:33:56.125Z,1329.00
2024-04-11T03:34:56.034Z,1298.00
2024-04-11T03:35:56.113Z,1300.00
2024-04-11T03:36:55.952Z,1239.00
2024-04-11T03:37:55.923Z,1198.00
2024-04-11T03:38:56.459Z,1171.00
2024-04-11T03:39:55.867Z,1152.00
2024-04-11T03:40:56.732Z,1144.00
2024-04-11T03:41:55.882Z,1101.00
2024-04-11T03:42:55.773Z,1077.00
2024-04-11T03:43:55.762Z,1042.00
2024-04-11T03:44:55.748Z,1026.00
2024-04-11T03:45:55.679Z,986.00
2024-04-11T03:46:55.683Z,972.00
2024-04-11T03:47:55.755Z,958.00
2024-04-11T03:48:55.866Z,924.00
2024-04-11T03:49:55.706Z,918.00
2024-04-11T03:50:55.745Z,864.00
2024-04-11T03:51:55.766Z,867.00
2024-04-11T03:52:55.770Z,854.00
2024-04-11T03:53:55.871Z,842.00
2024-04-11T03:54:55.836Z,807.00
2024-04-11T03:55:55.859Z,790.00
2024-04-11T03:56:55.961Z,764.00
2024-04-11T03:57:55.947Z,756.00
2024-04-11T03:58:55.971Z,740.00
2024-04-11T03:59:56.051Z,699.00
2024-04-11T04:00:56.085Z,722.00
2024-04-11T04:01:56.075Z,683.00
2024-04-11T04:02:56.149Z,676.00
2024-04-11T04:03:56.329Z,665.00
2024-04-11T04:04:56.203Z,665.00
2024-04-11T04:05:56.276Z,662.00
2024-04-11T04:06:56.243Z,660.00
2024-04-11T04:07:56.290Z,656.00
2024-04-11T04:08:56.491Z,647.00
2024-04-11T04:09:56.375Z,644.00
2024-04-11T04:10:56.408Z,644.00
2024-04-11T04:11:56.648Z,644.00
2024-04-11T04:12:56.484Z,640.00
2024-04-11T04:13:56.520Z,644.00
2024-04-11T04:14:56.574Z,640.00
2024-04-11T04:15:56.617Z,640.00
2024-04-11T04:16:56.556Z,639.00
2024-04-11T04:17:56.625Z,640.00
2024-04-11T04:18:56.560Z,639.00
2024-04-11T04:19:56.471Z,636.00
2024-04-11T04:20:56.521Z,638.00
2024-04-11T04:21:56.417Z,635.00
2024-04-11T04:22:56.423Z,632.00
2024-04-11T04:24:56.370Z,635.00
2024-04-11T04:25:56.420Z,627.00
2024-04-11T04:26:56.480Z,627.00
2024-04-11T04:27:56.506Z,629.00
2024-04-11T04:28:56.554Z,625.00
2024-04-11T04:29:56.662Z,624.00
2024-04-11T04:30:58.624Z,623.00
2024-04-11T04:31:56.692Z,623.00
2024-04-11T04:32:56.861Z,618.00
2024-04-11T04:33:56.958Z,616.00
2024-04-11T04:34:56.789Z,616.00
2024-04-11T04:35:56.826Z,617.00
2024-04-11T04:36:56.737Z,618.00
2024-04-11T04:37:56.761Z,621.00
2024-04-11T04:38:56.834Z,623.00
2024-04-11T04:39:56.729Z,627.00
2024-04-11T04:40:56.705Z,624.00
2024-04-11T04:41:56.743Z,623.00
2024-04-11T04:42:56.669Z,626.00
2024-04-11T04:43:56.735Z,625.00
2024-04-11T04:44:56.850Z,627.00
2024-04-11T04:45:56.840Z,628.00
2024-04-11T04:47:04.214Z,600.00
2024-04-11T04:48:04.583Z,600.00
2024-04-11T04:49:04.596Z,600.00
2024-04-11T04:50:04.248Z,600.00
2024-04-11T04:51:04.325Z,600.00
2024-04-11T04:52:04.271Z,603.00
2024-04-11T04:53:04.275Z,607.00
2024-04-11T04:54:04.509Z,607.00
2024-04-11T04:55:04.300Z,606.00
2024-04-11T04:56:04.324Z,607.00
2024-04-11T04:57:04.524Z,611.00
2024-04-11T04:58:04.356Z,610.00
2024-04-11T04:59:04.515Z,614.00
2024-04-11T05:00:04.466Z,615.00
2024-04-11T05:01:04.466Z,612.00
2024-04-11T05:02:04.416Z,618.00
2024-04-11T05:03:04.546Z,619.00
2024-04-11T05:04:04.586Z,619.00
2024-04-11T05:05:04.505Z,619.00
2024-04-11T05:06:04.755Z,620.00
2024-04-11T05:07:04.448Z,620.00
2024-04-11T05:08:04.471Z,627.00
2024-04-11T05:09:04.523Z,625.00
2024-04-11T05:10:04.464Z,625.00
2024-04-11T05:11:04.528Z,624.00
2024-04-11T05:12:04.514Z,626.00
2024-04-11T05:13:04.484Z,625.00
2024-04-11T05:14:04.500Z,624.00
2024-04-11T05:15:04.718Z,628.00
2024-04-11T05:16:04.649Z,628.00
2024-04-11T05:17:04.606Z,631.00
2024-04-11T05:18:04.728Z,631.00
2024-04-11T05:19:04.722Z,631.00
2024-04-11T05:20:04.766Z,636.00
2024-04-11T05:21:04.873Z,637.00
2024-04-11T05:22:04.863Z,645.00
2024-04-11T05:23:04.921Z,649.00
2024-04-11T05:24:05.103Z,650.00
2024-04-11T05:25:05.031Z,654.00
2024-04-11T05:26:05.083Z,658.00
2024-04-11T05:27:05.242Z,665.00
2024-04-11T05:28:05.192Z,678.00
2024-04-11T05:29:05.243Z,685.00
2024-04-11T05:30:05.395Z,694.00
2024-04-11T05:31:05.353Z,710.00
2024-04-11T05:32:05.464Z,710.00
2024-04-11T05:33:05.551Z,712.00
2024-04-11T05:34:05.531Z,710.00
2024-04-11T05:35:05.389Z,714.00
2024-04-11T05:36:05.468Z,721.00
2024-04-11T05:37:05.428Z,736.00
2024-04-11T05:38:06.305Z,768.00
2024-04-11T05:39:05.865Z,778.00
2024-04-11T05:40:05.416Z,790.00
2024-04-11T05:41:05.434Z,788.00
2024-04-11T05:42:05.558Z,798.00
2024-04-11T05:43:05.475Z,798.00
2024-04-11T05:44:05.526Z,796.00
2024-04-11T05:45:05.633Z,804.00
2024-04-11T05:46:05.627Z,821.00
2024-04-11T05:47:05.705Z,816.00
2024-04-11T05:48:07.742Z,823.00
2024-04-11T05:49:06.229Z,823.00
2024-04-11T05:50:05.750Z,823.00
2024-04-11T05:51:05.907Z,823.00
2024-04-11T05:52:06.063Z,817.00
2024-04-11T05:53:05.754Z,817.00
2024-04-11T05:54:05.784Z,820.00
2024-04-11T05:55:05.791Z,819.00
2024-04-11T05:56:05.780Z,823.00
2024-04-11T05:57:05.915Z,815.00
2024-04-11T05:58:05.797Z,808.00
2024-04-11T05:59:05.816Z,804.00
2024-04-11T06:00:05.847Z,812.00
2024-04-11T06:01:06.016Z,815.00
2024-04-11T06:02:06.044Z,820.00
2024-04-11T06:03:06.132Z,825.00
2024-04-11T06:04:06.107Z,831.00
2024-04-11T06:05:06.400Z,830.00
2024-04-11T06:06:06.246Z,829.00
2024-04-11T06:07:06.269Z,836.00
2024-04-11T06:08:06.314Z,844.00
2024-04-11T06:09:06.537Z,838.00
2024-04-11T06:10:06.495Z,843.00
2024-04-11T06:11:06.549Z,835.00
2024-04-11T06:12:06.647Z,837.00
2024-04-11T06:13:06.686Z,842.00
2024-04-11T06:14:06.722Z,842.00
2024-04-11T06:15:06.821Z,842.00
2024-04-11T06:16:06.990Z,835.00
2024-04-11T06:17:06.893Z,832.00
2024-04-11T06:18:07.162Z,837.00
2024-04-11T06:19:07.138Z,825.00
2024-04-11T06:20:07.337Z,817.00
2024-04-11T06:21:07.138Z,812.00
2024-04-11T06:22:07.084Z,808.00
2024-04-11T06:23:07.108Z,805.00
2024-04-11T06:24:07.923Z,799.00
2024-04-11T06:25:07.139Z,786.00
2024-04-11T06:26:07.102Z,799.00
2024-04-11T06:27:07.340Z,791.00
2024-04-11T06:28:07.293Z,783.00
2024-04-11T06:29:07.148Z,779.00
2024-04-11T06:30:07.255Z,769.00
2024-04-11T06:31:07.266Z,780.00
2024-04-11T06:32:07.338Z,769.00
2024-04-11T06:33:07.504Z,759.00
2024-04-11T06:34:08.015Z,755.00
2024-04-11T06:35:07.462Z,770.00
2024-04-11T06:36:07.642Z,771.00
2024-04-11T06:37:07.561Z,784.00
2024-04-11T06:38:07.698Z,800.00
2024-04-11T06:39:07.738Z,801.00
2024-04-11T06:40:07.724Z,801.00
2024-04-11T06:41:07.786Z,808.00
2024-04-11T06:42:07.879Z,831.00
2024-04-11T06:43:07.880Z,832.00
2024-04-11T06:45:08.839Z,832.00
2024-04-11T06:46:08.075Z,830.00
2024-04-11T06:47:08.185Z,841.00
2024-04-11T06:48:09.011Z,842.00
2024-04-11T06:49:08.278Z,815.00
2024-04-11T06:50:08.291Z,811.00
2024-04-11T06:51:08.879Z,794.00
2024-04-11T06:52:08.479Z,790.00
2024-04-11T06:53:08.436Z,790.00
2024-04-11T06:54:08.510Z,765.00
2024-04-11T06:55:08.489Z,747.00
2024-04-11T06:56:08.533Z,746.00
2024-04-11T06:57:09.453Z,738.00
2024-04-11T06:58:08.567Z,726.00
2024-04-11T06:59:08.590Z,722.00
2024-04-11T07:00:08.605Z,717.00
2024-04-11T07:01:08.670Z,701.00
2024-04-11T07:02:08.734Z,696.00
2024-04-11T07:03:08.678Z,706.00
2024-04-11T07:04:08.725Z,696.00
2024-04-11T07:05:08.644Z,696.00
2024-04-11T07:06:10.467Z,690.00
2024-04-11T07:07:08.637Z,678.00
2024-04-11T07:08:08.643Z,675.00
2024-04-11T07:09:10.015Z,678.00
2024-04-11T07:10:08.689Z,663.00
2024-04-11T07:11:08.714Z,665.00
2024-04-11T07:12:08.697Z,680.00
2024-04-11T07:13:08.797Z,684.00
2024-04-11T07:14:08.706Z,670.00
2024-04-11T07:15:08.695Z,672.00
2024-04-11T07:16:08.700Z,660.00
2024-04-11T07:17:08.723Z,655.00
2024-04-11T07:18:08.887Z,655.00
2024-04-11T07:19:08.743Z,651.00
2024-04-11T07:20:08.730Z,647.00
2024-04-11T07:21:08.876Z,643.00
2024-04-11T07:22:08.745Z,633.00
2024-04-11T07:23:08.772Z,625.00
2024-04-11T07:24:09.674Z,614.00
2024-04-11T07:25:09.332Z,614.00
2024-04-11T07:26:09.332Z,608.00
2024-04-11T07:27:08.763Z,597.00
2024-04-11T07:28:08.815Z,605.00
2024-04-11T07:29:08.782Z,605.00
2024-04-11T07:30:08.795Z,589.00
2024-04-11T07:31:08.958Z,592.00
2024-04-11T07:32:08.801Z,585.00
2024-04-11T07:33:08.965Z,575.00
2024-04-11T07:34:08.927Z,566.00
2024-04-11T07:35:08.805Z,600.00
2024-04-11T07:36:08.851Z,598.00
2024-04-11T07:37:08.816Z,612.00
2024-04-11T07:38:08.797Z,611.00
2024-04-11T07:39:08.856Z,606.00
2024-04-11T07:40:08.805Z,602.00
2024-04-11T07:41:08.814Z,600.00
2024-04-11T07:42:08.836Z,601.00
2024-04-11T07:43:08.856Z,602.00
2024-04-11T07:44:09.403Z,600.00
2024-04-11T07:45:08.998Z,613.00
2024-04-11T07:46:08.856Z,601.00
2024-04-11T07:47:15.609Z,605.00
2024-04-11T07:48:11.774Z,587.00
2024-04-11T07:49:09.057Z,585.00
2024-04-11T07:50:08.910Z,589.00
2024-04-11T07:51:08.856Z,576.00
2024-04-11T07:52:08.976Z,585.00
2024-04-11T07:53:08.940Z,576.00
2024-04-11T07:54:08.878Z,582.00
2024-04-11T07:55:08.844Z,586.00
2024-04-11T07:56:08.884Z,596.00
2024-04-11T07:57:08.865Z,605.00
2024-04-11T07:58:08.868Z,605.00
2024-04-11T07:59:08.903Z,609.00
2024-04-11T08:00:08.980Z,609.00
2024-04-11T08:01:08.914Z,611.00
2024-04-11T08:02:08.889Z,621.00
2024-04-11T08:03:08.898Z,619.00
2024-04-11T08:04:08.910Z,625.00
2024-04-11T08:05:09.161Z,629.00
2024-04-11T08:06:09.055Z,627.00
2024-04-11T08:07:08.919Z,621.00
2024-04-11T08:08:08.918Z,628.00
2024-04-11T08:09:08.964Z,628.00
2024-04-11T08:10:08.929Z,635.00
2024-04-11T08:11:09.052Z,644.00
2024-04-11T08:12:09.071Z,645.00
2024-04-11T08:13:08.924Z,640.00
2024-04-11T08:14:09.982Z,645.00
2024-04-11T08:15:08.953Z,655.00
2024-04-11T08:16:09.043Z,666.00
2024-04-11T08:17:08.879Z,737.00
2024-04-11T08:18:09.070Z,784.00
2024-04-11T08:19:09.000Z,815.00
2024-04-11T08:20:09.069Z,843.00
2024-04-11T08:21:09.137Z,871.00
2024-04-11T08:22:09.127Z,909.00
2024-04-11T08:23:14.762Z,920.00
2024-04-11T08:24:10.189Z,921.00
2024-04-11T08:25:09.203Z,927.00
2024-04-11T08:26:09.180Z,937.00
2024-04-11T08:27:09.230Z,956.00
2024-04-11T08:28:09.174Z,966.00
2024-04-11T08:29:09.193Z,970.00
2024-04-11T08:30:09.177Z,970.00
2024-04-11T08:31:09.154Z,973.00
2024-04-11T08:32:09.172Z,979.00
2024-04-11T08:33:09.227Z,980.00
2024-04-11T08:34:09.190Z,994.00
2024-04-11T08:35:09.131Z,996.00
2024-04-11T08:36:09.123Z,982.00
2024-04-11T08:37:09.119Z,987.00
2024-04-11T08:38:09.133Z,991.00
2024-04-11T08:39:09.386Z,969.00
2024-04-11T08:40:09.244Z,971.00
2024-04-11T08:41:09.297Z,967.00
2024-04-11T08:42:09.333Z,955.00
2024-04-11T08:43:09.408Z,950.00
2024-04-11T08:44:09.515Z,924.00
2024-04-11T08:45:09.523Z,927.00
2024-04-11T08:46:09.584Z,912.00
2024-04-11T08:47:09.712Z,903.00
2024-04-11T08:48:09.847Z,901.00
2024-04-11T08:49:09.861Z,892.00
2024-04-11T08:50:09.976Z,890.00
2024-04-11T08:51:10.078Z,875.00
2024-04-11T08:52:09.910Z,867.00
2024-04-11T08:53:09.956Z,852.00
2024-04-11T08:54:10.064Z,842.00
2024-04-11T08:55:10.072Z,829.00
2024-04-11T08:56:10.357Z,818.00
2024-04-11T08:57:10.192Z,816.00
2024-04-11T08:58:10.214Z,803.00
2024-04-11T08:59:10.478Z,788.00
2024-04-11T09:00:10.424Z,779.00
2024-04-11T09:01:11.451Z,771.00
2024-04-11T09:02:10.497Z,763.00
2024-04-11T09:03:10.589Z,764.00
2024-04-11T09:04:10.736Z,737.00
2024-04-11T09:05:15.663Z,717.00
2024-04-11T09:06:10.626Z,696.00
2024-04-11T09:07:10.799Z,665.00
2024-04-11T09:08:10.572Z,656.00
2024-04-11T09:09:10.667Z,646.00
2024-04-11T09:10:10.557Z,644.00
2024-04-11T09:11:10.610Z,639.00
2024-04-11T09:12:10.654Z,640.00
2024-04-11T09:13:10.558Z,632.00
2024-04-11T09:14:10.594Z,623.00
2024-04-11T09:15:10.531Z,615.00
2024-04-11T09:16:10.617Z,612.00
2024-04-11T09:17:10.708Z,610.00
2024-04-11T09:18:10.760Z,611.00
2024-04-11T09:19:11.016Z,606.00
2024-04-11T09:20:10.797Z,606.00
2024-04-11T09:21:10.878Z,604.00
2024-04-11T09:22:10.885Z,609.00
2024-04-11T09:23:10.945Z,610.00
2024-04-11T09:24:10.987Z,607.00
2024-04-11T09:25:11.022Z,612.00
2024-04-11T09:26:11.058Z,612.00
2024-04-11T09:27:11.000Z,614.00
2024-04-11T09:28:10.985Z,617.00
2024-04-11T09:29:10.965Z,625.00
2024-04-11T09:30:10.994Z,640.00
2024-04-11T09:31:10.960Z,638.00
2024-04-11T09:32:10.934Z,634.00
2024-04-11T09:33:11.043Z,640.00
2024-04-11T09:34:11.022Z,640.00
2024-04-11T09:35:10.874Z,642.00
2024-04-11T09:36:10.971Z,646.00
2024-04-11T09:37:11.421Z,657.00
2024-04-11T09:38:10.830Z,691.00
2024-04-11T09:39:10.832Z,707.00
2024-04-11T09:40:10.840Z,726.00
2024-04-11T09:41:10.798Z,749.00
2024-04-11T09:42:10.782Z,750.00
2024-04-11T09:43:10.770Z,755.00
2024-04-11T09:44:10.893Z,768.00
2024-04-11T09:45:10.748Z,794.00
2024-04-11T09:46:10.915Z,829.00
2024-04-11T09:47:10.750Z,853.00
2024-04-11T09:48:10.741Z,879.00
2024-04-11T09:49:10.688Z,888.00
2024-04-11T09:50:10.807Z,919.00
2024-04-11T09:51:10.655Z,926.00
2024-04-11T09:52:10.630Z,944.00
2024-04-11T09:53:10.762Z,954.00
2024-04-11T09:54:10.628Z,940.00
2024-04-11T09:55:11.194Z,910.00
2024-04-11T09:56:10.698Z,817.00
2024-04-11T09:57:10.580Z,708.00
2024-04-11T09:58:10.565Z,638.00
2024-04-11T09:59:10.585Z,608.00
2024-04-11T10:00:10.731Z,598.00
2024-04-11T10:01:11.482Z,599.00
2024-04-11T10:02:10.725Z,597.00
2024-04-11T10:03:10.951Z,596.00
2024-04-11T10:04:10.874Z,600.00
2024-04-11T10:05:10.892Z,595.00
2024-04-11T10:06:11.012Z,597.00
2024-04-11T10:07:11.018Z,600.00
2024-04-11T10:08:11.110Z,602.00
2024-04-11T10:09:11.114Z,600.00
2024-04-11T10:10:11.446Z,601.00
2024-04-11T10:11:11.236Z,600.00
2024-04-11T10:12:11.315Z,603.00
2024-04-11T10:13:11.467Z,600.00
2024-04-11T10:14:11.359Z,601.00
2024-04-11T10:15:11.434Z,600.00
2024-04-11T10:16:11.463Z,601.00
2024-04-11T10:17:11.544Z,600.00
2024-04-11T10:18:12.510Z,602.00
2024-04-11T10:19:12.334Z,601.00
2024-04-11T10:20:11.678Z,604.00
2024-04-11T10:21:11.730Z,600.00
2024-04-11T10:22:11.768Z,599.00
2024-04-11T10:23:11.864Z,600.00
2024-04-11T10:24:11.924Z,600.00
2024-04-11T10:25:11.939Z,607.00
2024-04-11T10:26:11.897Z,606.00
2024-04-11T10:27:12.595Z,604.00
2024-04-11T10:28:11.880Z,608.00
2024-04-11T10:29:11.853Z,606.00
2024-04-11T10:30:11.946Z,609.00
2024-04-11T10:31:11.850Z,618.00
2024-04-11T10:32:11.858Z,608.00
2024-04-11T10:33:11.873Z,610.00
2024-04-11T10:34:12.112Z,619.00
2024-04-11T10:35:11.922Z,630.00
2024-04-11T10:36:12.276Z,649.00
2024-04-11T10:37:12.013Z,660.00
2024-04-11T10:38:11.784Z,661.00
2024-04-11T10:39:11.777Z,663.00
2024-04-11T10:40:12.035Z,684.00
2024-04-11T10:41:11.766Z,716.00
2024-04-11T10:42:11.778Z,797.00
2024-04-11T10:43:12.958Z,831.00
2024-04-11T10:44:11.731Z,869.00
2024-04-11T10:45:11.809Z,897.00
2024-04-11T10:46:11.737Z,928.00
2024-04-11T10:47:11.757Z,953.00
2024-04-11T10:48:12.019Z,967.00
2024-04-11T10:49:11.825Z,1007.00
2024-04-11T10:50:11.893Z,1026.00
2024-04-11T10:51:11.917Z,1048.00
2024-04-11T10:52:11.945Z,1072.00
2024-04-11T10:53:12.391Z,1088.00
2024-04-11T10:54:11.999Z,1099.00
2024-04-11T10:55:12.436Z,1123.00
2024-04-11T10:56:13.264Z,1122.00
2024-04-11T10:57:12.032Z,1126.00
2024-04-11T10:58:11.990Z,1152.00
2024-04-11T10:59:12.024Z,1163.00
2024-04-11T11:00:11.977Z,1170.00
2024-04-11T11:01:12.014Z,1187.00
2024-04-11T11:02:11.982Z,1203.00
2024-04-11T11:03:12.046Z,1218.00
2024-04-11T11:04:11.978Z,1229.00
2024-04-11T11:05:11.969Z,1246.00
2024-04-11T11:06:11.923Z,1246.00
2024-04-11T11:07:12.371Z,1248.00
2024-04-11T11:08:11.929Z,1257.00
2024-04-11T11:09:12.262Z,1270.00
2024-04-11T11:10:11.930Z,1288.00
2024-04-11T11:11:11.943Z,1297.00
2024-04-11T11:12:13.584Z,1322.00
2024-04-11T11:13:11.862Z,1315.00
2024-04-11T11:14:11.848Z,1329.00
2024-04-11T11:15:11.807Z,1331.00
2024-04-11T11:16:11.900Z,1343.00
2024-04-11T11:17:11.782Z,1342.00
2024-04-11T11:18:11.865Z,1344.00
2024-04-11T11:19:11.795Z,1354.00
2024-04-11T11:20:11.839Z,1357.00
2024-04-11T11:21:11.752Z,1371.00
2024-04-11T11:22:11.720Z,1360.00
2024-04-11T11:23:11.700Z,1379.00
2024-04-11T11:24:11.691Z,1378.00
2024-04-11T11:25:11.700Z,1388.00
2024-04-11T11:26:11.750Z,1395.00
2024-04-11T11:27:11.716Z,1389.00
2024-04-11T11:28:11.849Z,1388.00
2024-04-11T11:29:12.458Z,1400.00
2024-04-11T11:30:12.500Z,1403.00
2024-04-11T11:31:11.759Z,1415.00
2024-04-11T11:32:11.803Z,1418.00
2024-04-11T11:33:11.923Z,1428.00
2024-04-11T11:34:12.159Z,1435.00
2024-04-11T11:35:11.801Z,1439.00
2024-04-11T11:36:11.829Z,1451.00
2024-04-11T11:37:11.865Z,1455.00
2024-04-11T11:38:11.890Z,1447.00
2024-04-11T11:39:11.983Z,1462.00
2024-04-11T11:40:12.034Z,1464.00
2024-04-11T11:41:12.013Z,1456.00
2024-04-11T11:42:12.010Z,1473.00
2024-04-11T11:43:12.064Z,1471.00
2024-04-11T11:44:12.145Z,1467.00
2024-04-11T11:45:12.053Z,1474.00
2024-04-11T11:46:11.978Z,1469.00
2024-04-11T11:47:13.285Z,1464.00
2024-04-11T11:48:12.189Z,1472.00
2024-04-11T11:49:12.035Z,1473.00
2024-04-11T11:50:12.069Z,1475.00
2024-04-11T11:51:12.022Z,1471.00
2024-04-11T11:52:12.126Z,1485.00
2024-04-11T11:53:12.025Z,1485.00
2024-04-11T11:54:12.120Z,1483.00
2024-04-11T11:55:12.035Z,1480.00
2024-04-11T11:56:12.033Z,1487.00
2024-04-11T11:57:12.052Z,1486.00
2024-04-11T11:58:12.077Z,1482.00
2024-04-11T11:59:12.020Z,1485.00
2024-04-11T12:00:12.058Z,1472.00
2024-04-11T12:01:12.089Z,1480.00
2024-04-11T12:02:12.108Z,1486.00
2024-04-11T12:03:18.423Z,1479.00
2024-04-11T12:04:13.318Z,1476.00
2024-04-11T12:05:12.027Z,1475.00
2024-04-11T12:06:12.059Z,1475.00
2024-04-11T12:07:12.045Z,1475.00
2024-04-11T12:08:12.006Z,1476.00
2024-04-11T12:09:12.326Z,1474.00
2024-04-11T12:10:12.007Z,1464.00
2024-04-11T12:11:12.139Z,1461.00
2024-04-11T12:12:12.079Z,1456.00
2024-04-11T12:13:11.872Z,1456.00
2024-04-11T12:14:11.874Z,1457.00
2024-04-11T12:15:11.921Z,1460.00
2024-04-11T12:16:12.099Z,1461.00
2024-04-11T12:17:11.839Z,1466.00
2024-04-11T12:18:11.873Z,1466.00
2024-04-11T12:19:12.126Z,1445.00
2024-04-11T12:20:11.848Z,1444.00